Nizhyn, Ukraine
Current Conditions -  °F | °C
As of 11:00 PM on Monday 24 Nov 2014 (Local Time) from UKBB Reporting Station
Clear Clear  
Wind Chill: 14°   Ceiling: Unl
Heat Index: 14°   Visibility: 4mi
Dew Point: 12°   Wind: 2mph
Humidity: 93%   Direction: 40°NE
Pressure: 30.59"   Gusts: NA
Location:  51.05°N, 31.88°E
Report Text: UKBB 242000Z 04001MPS 6000 NSC M10/M11 Q1036 88820550 NOSIG
Loading
Personal Weather Stations






























Interactive Weather Map New forecast layout! Learn more

10-Day Weather Forecast

Advertisements
Track Severe Weather on mobile